Time;durP1;ratioP1;P1;durP2;ratioP2;P2;SDS_P1;SDS_P2;PMS_P1;PMS_P2;Temp;Humidity;BMP_temperature;BMP_pressure;BME280_temperature;BME280_humidity;BME280_pressure;Samples;Min_cycle;Max_cycle;Signal;HPM_P1;HPM_P2
2023/02/11 00:00:41;;;;;;;2.77;1.73;;;-1.90;74.60;;;;;;5003696;28;20278;-70
2023/02/11 00:03:07;;;;;;;0.93;0.93;;;-1.90;74.50;;;;;;5003041;28;20571;-71
2023/02/11 00:05:33;;;;;;;0.77;0.77;;;-1.90;74.40;;;;;;5003576;28;20185;-70
2023/02/11 00:07:58;;;;;;;0.70;0.70;;;-1.90;74.60;;;;;;5013403;28;20211;-70
2023/02/11 00:10:24;;;;;;;0.57;0.40;;;-2.00;74.50;;;;;;5008484;28;20655;-69
2023/02/11 00:12:49;;;;;;;6.10;1.40;;;-2.00;74.60;;;;;;5013705;28;20744;-70
2023/02/11 00:15:15;;;;;;;0.73;0.73;;;-2.00;74.30;;;;;;5004254;28;20685;-71
2023/02/11 00:17:41;;;;;;;2.83;1.00;;;-2.00;74.50;;;;;;5011312;28;20181;-70
2023/02/11 00:20:07;;;;;;;0.43;0.43;;;-2.00;74.40;;;;;;5015087;28;20195;-70
2023/02/11 00:22:33;;;;;;;1.13;1.03;;;-2.00;74.30;;;;;;5012363;28;20188;-69
2023/02/11 00:24:58;;;;;;;0.93;0.93;;;-2.00;74.30;;;;;;5013611;28;20798;-70
2023/02/11 00:27:25;;;;;;;5.43;1.20;;;-2.10;74.30;;;;;;5008275;28;20750;-69
2023/02/11 00:29:50;;;;;;;2.33;1.20;;;-2.10;74.30;;;;;;5010621;28;20188;-69
2023/02/11 00:32:16;;;;;;;0.83;0.80;;;-2.10;74.20;;;;;;5007950;28;20226;-70
2023/02/11 00:34:42;;;;;;;0.50;0.50;;;-2.10;74.10;;;;;;5007941;28;20191;-69
2023/02/11 00:37:07;;;;;;;0.57;0.57;;;-2.10;74.10;;;;;;5007701;28;20193;-69
2023/02/11 00:39:33;;;;;;;0.50;0.50;;;-2.10;74.00;;;;;;5018705;28;20196;-70
2023/02/11 00:41:59;;;;;;;1.37;0.50;;;-2.20;74.10;;;;;;5007420;28;21028;-70
2023/02/11 00:44:25;;;;;;;0.63;0.63;;;-2.20;74.20;;;;;;5007718;28;20254;-70
2023/02/11 00:46:50;;;;;;;0.63;0.60;;;-2.20;74.20;;;;;;5007683;28;20251;-70
2023/02/11 00:49:20;;;;;;;0.63;0.63;;;-2.20;74.20;;;;;;5017238;28;20227;-69
2023/02/11 00:51:46;;;;;;;0.93;0.90;;;-2.30;74.20;;;;;;5014955;28;20268;-69
2023/02/11 00:54:11;;;;;;;0.40;0.40;;;-2.30;74.20;;;;;;5009791;28;20267;-71
2023/02/11 00:56:37;;;;;;;0.60;0.60;;;-2.40;74.30;;;;;;5012709;28;20207;-71
2023/02/11 00:59:03;;;;;;;0.33;0.33;;;-2.40;74.40;;;;;;5007042;28;20188;-70
2023/02/11 01:01:28;;;;;;;2.93;0.57;;;-2.40;74.50;;;;;;5004874;28;20200;-70
2023/02/11 01:03:54;;;;;;;0.97;0.67;;;-2.40;74.40;;;;;;5007069;28;20208;-70
2023/02/11 01:06:20;;;;;;;0.43;0.37;;;-2.40;74.60;;;;;;5007581;28;20269;-71
2023/02/11 01:08:45;;;;;;;0.83;0.83;;;-2.40;74.60;;;;;;5010873;28;20259;-70
2023/02/11 01:11:14;;;;;;;0.67;0.47;;;-2.50;74.70;;;;;;5007327;28;20212;-69
2023/02/11 01:13:41;;;;;;;2.67;1.07;;;-2.50;74.70;;;;;;5003908;28;20189;-69
2023/02/11 01:16:09;;;;;;;1.43;0.43;;;-2.50;74.70;;;;;;5007654;28;20181;-70
2023/02/11 01:18:35;;;;;;;0.40;0.40;;;-2.50;74.70;;;;;;4998704;28;20851;-70
2023/02/11 01:21:01;;;;;;;0.40;0.40;;;-2.50;74.60;;;;;;5006894;28;20662;-71
2023/02/11 01:23:26;;;;;;;0.40;0.40;;;-2.50;74.60;;;;;;5006288;28;20268;-70
2023/02/11 01:25:53;;;;;;;0.47;0.47;;;-2.60;75.00;;;;;;5015206;28;20190;-70
2023/02/11 01:28:23;;;;;;;0.60;0.60;;;-2.60;74.90;;;;;;5005362;28;20215;-71
2023/02/11 01:30:50;;;;;;;0.53;0.53;;;-2.60;75.00;;;;;;5006059;28;20193;-70
2023/02/11 01:33:16;;;;;;;0.50;0.50;;;-2.60;75.00;;;;;;4996253;28;20188;-71
2023/02/11 01:35:42;;;;;;;0.37;0.37;;;-2.70;75.00;;;;;;5019971;28;20266;-70
2023/02/11 01:38:18;;;;;;;1.13;0.90;;;-2.70;75.00;;;;;;5014005;28;20185;-69
2023/02/11 01:40:49;;;;;;;1.00;0.43;;;-2.70;74.90;;;;;;5019371;28;20275;-70
2023/02/11 01:43:17;;;;;;;1.33;0.60;;;-2.70;75.10;;;;;;4998971;28;20267;-70
2023/02/11 01:45:47;;;;;;;0.63;0.57;;;-2.70;75.00;;;;;;5007470;28;20173;-70
2023/02/11 01:48:27;;;;;;;0.27;0.27;;;-2.80;75.30;;;;;;5009498;28;20216;-70
2023/02/11 01:51:00;;;;;;;0.50;0.33;;;-2.80;75.40;;;;;;5005834;28;20184;-70
2023/02/11 01:59:04;;;;;;;1.33;0.70;;;-2.90;75.60;;;;;;5012964;28;20208;-70
2023/02/11 02:01:32;;;;;;;0.80;0.80;;;-2.90;75.50;;;;;;5005965;28;20267;-70
2023/02/11 02:04:08;;;;;;;2.40;0.90;;;-2.90;75.50;;;;;;5007567;28;20291;-70
2023/02/11 02:06:58;;;;;;;0.20;0.20;;;-2.90;75.50;;;;;;5013906;28;20183;-69
2023/02/11 02:09:33;;;;;;;1.10;0.67;;;-2.90;75.40;;;;;;5004714;28;20205;-71
2023/02/11 02:11:58;;;;;;;1.13;0.43;;;-2.90;75.50;;;;;;5004548;28;20188;-71
2023/02/11 02:14:25;;;;;;;0.17;0.17;;;-3.00;75.60;;;;;;5015479;28;20195;-71
2023/02/11 02:16:51;;;;;;;3.47;0.53;;;-3.00;75.50;;;;;;5011484;28;20601;-70
2023/02/11 02:19:41;;;;;;;1.43;0.40;;;-3.00;75.60;;;;;;5010860;28;20197;-71
2023/02/11 02:22:26;;;;;;;0.20;0.20;;;-3.00;75.60;;;;;;5001417;28;20177;-71
2023/02/11 02:24:55;;;;;;;0.30;0.30;;;-3.00;75.50;;;;;;5010844;28;20674;-71
2023/02/11 02:27:40;;;;;;;0.37;0.37;;;-3.00;75.50;;;;;;5015751;28;20279;-72
2023/02/11 02:30:12;;;;;;;0.30;0.30;;;-3.00;75.50;;;;;;5003068;28;20193;-70
2023/02/11 02:32:48;;;;;;;0.40;0.40;;;-3.10;75.50;;;;;;5006349;28;20185;-70
2023/02/11 02:35:48;;;;;;;5.13;0.50;;;-3.10;75.50;;;;;;5015182;28;20186;-71
2023/02/11 02:38:24;;;;;;;0.20;0.20;;;-3.10;75.50;;;;;;4962559;28;20588;-70
2023/02/11 02:41:09;;;;;;;0.30;0.30;;;-3.10;75.60;;;;;;4963288;28;20245;-71
2023/02/11 02:43:38;;;;;;;0.30;0.30;;;-3.20;75.60;;;;;;4970117;28;20285;-70
2023/02/11 02:46:16;;;;;;;0.97;0.20;;;-3.20;75.60;;;;;;4968796;28;20293;-70
2023/02/11 02:48:43;;;;;;;0.30;0.30;;;-3.20;75.50;;;;;;4968026;28;20281;-71
2023/02/11 02:51:15;;;;;;;0.30;0.30;;;-3.20;75.60;;;;;;4980434;28;20193;-71
2023/02/11 02:54:02;;;;;;;0.20;0.20;;;-3.20;75.50;;;;;;4967778;28;20293;-69
2023/02/11 02:57:14;;;;;;;0.33;0.20;;;-3.20;75.70;;;;;;4983345;28;20650;-70
2023/02/11 03:00:01;;;;;;;0.10;0.10;;;-3.30;75.60;;;;;;4947217;28;20319;-71
2023/02/11 03:02:54;;;;;;;0.57;0.57;;;-3.30;75.60;;;;;;4935649;29;20911;-70
2023/02/11 03:05:51;;;;;;;1.00;0.53;;;-3.30;75.80;;;;;;4945610;28;20194;-71
2023/02/11 03:08:19;;;;;;;0.10;0.10;;;-3.30;75.90;;;;;;4940434;29;20238;-70
2023/02/11 03:10:49;;;;;;;0.23;0.23;;;-3.30;75.90;;;;;;4953199;28;20674;-70
2023/02/11 03:13:17;;;;;;;0.27;0.27;;;-3.30;75.90;;;;;;4953231;28;20198;-70
2023/02/11 03:15:47;;;;;;;0.50;0.37;;;-3.40;75.90;;;;;;4999529;28;20686;-70
2023/02/11 03:18:16;;;;;;;0.50;0.50;;;-3.40;75.90;;;;;;4963448;28;20183;-70
2023/02/11 03:20:46;;;;;;;0.07;0.07;;;-3.40;76.00;;;;;;4971060;28;20231;-70
2023/02/11 03:23:25;;;;;;;0.30;0.30;;;-3.50;76.20;;;;;;4976206;28;21047;-71
2023/02/11 03:26:01;;;;;;;1.10;0.40;;;-3.50;76.10;;;;;;4982167;28;20239;-70
2023/02/11 03:28:33;;;;;;;0.17;0.17;;;-3.50;76.10;;;;;;4986974;28;20303;-70
2023/02/11 03:31:17;;;;;;;0.60;0.60;;;-3.50;76.20;;;;;;4977187;28;20189;-70
2023/02/11 03:33:58;;;;;;;0.47;0.47;;;-3.50;76.40;;;;;;4998995;28;20669;-70
2023/02/11 03:36:46;;;;;;;0.17;0.17;;;-3.60;76.50;;;;;;4993193;28;20195;-71
2023/02/11 03:39:20;;;;;;;0.20;0.20;;;-3.50;76.40;;;;;;5006481;28;20666;-70
2023/02/11 03:41:48;;;;;;;0.37;0.37;;;-3.50;76.30;;;;;;5004857;28;20192;-70
2023/02/11 03:44:15;;;;;;;1.70;1.10;;;-3.60;76.50;;;;;;5009338;28;20215;-70
2023/02/11 03:46:47;;;;;;;0.10;0.10;;;-3.60;76.50;;;;;;5012384;28;20200;-70
2023/02/11 03:49:16;;;;;;;0.20;0.20;;;-3.60;76.50;;;;;;5005313;28;20217;-70
2023/02/11 03:51:43;;;;;;;0.30;0.30;;;-3.60;76.50;;;;;;5006139;28;20184;-70
2023/02/11 03:54:13;;;;;;;0.20;0.20;;;-3.60;76.60;;;;;;5004522;28;20694;-69
2023/02/11 03:56:47;;;;;;;0.67;0.67;;;-3.60;76.50;;;;;;5011534;28;20215;-69
2023/02/11 03:59:13;;;;;;;0.73;0.50;;;-3.50;76.40;;;;;;5013407;28;20221;-71
2023/02/11 04:01:39;;;;;;;0.20;0.20;;;-3.50;76.40;;;;;;5009285;28;20182;-70
2023/02/11 04:04:07;;;;;;;0.50;0.50;;;-3.50;76.40;;;;;;4997970;28;20183;-71
2023/02/11 04:06:33;;;;;;;0.77;0.77;;;-3.50;76.30;;;;;;5015696;28;20189;-70
2023/02/11 04:08:59;;;;;;;0.50;0.50;;;-3.60;76.40;;;;;;5009516;28;20984;-70
2023/02/11 04:11:24;;;;;;;0.63;0.63;;;-3.60;76.70;;;;;;5021476;28;20194;-70
2023/02/11 04:13:50;;;;;;;0.40;0.40;;;-3.60;76.60;;;;;;5023307;28;20193;-70
2023/02/11 04:16:16;;;;;;;0.40;0.40;;;-3.60;76.40;;;;;;5004022;28;20193;-72
2023/02/11 04:18:41;;;;;;;1.07;0.50;;;-3.70;76.60;;;;;;5006527;28;20189;-69
2023/02/11 04:21:08;;;;;;;0.30;0.30;;;-3.70;76.60;;;;;;5018188;28;20253;-70
2023/02/11 04:23:33;;;;;;;0.30;0.30;;;-3.70;76.70;;;;;;5016518;28;20185;-70
2023/02/11 04:25:59;;;;;;;0.60;0.60;;;-3.70;76.80;;;;;;5009732;28;20184;-70
2023/02/11 04:28:28;;;;;;;0.23;0.23;;;-3.70;76.80;;;;;;5007303;28;20260;-70
2023/02/11 04:30:54;;;;;;;0.10;0.10;;;-3.70;76.80;;;;;;5007748;28;20642;-70
2023/02/11 04:33:20;;;;;;;0.10;0.10;;;-3.70;76.80;;;;;;5007599;28;20267;-70
2023/02/11 04:35:45;;;;;;;2.03;0.83;;;-3.70;77.00;;;;;;5006118;28;20261;-71
2023/02/11 04:38:11;;;;;;;1.00;1.00;;;-3.70;77.20;;;;;;5012690;28;20192;-70
2023/02/11 04:40:37;;;;;;;0.10;0.10;;;-3.80;77.10;;;;;;5012166;28;20564;-71
2023/02/11 04:43:02;;;;;;;0.67;0.67;;;-3.80;77.40;;;;;;5016548;28;20187;-70
2023/02/11 04:45:28;;;;;;;0.20;0.20;;;-3.80;77.40;;;;;;5008448;28;20765;-71
2023/02/11 04:47:54;;;;;;;0.53;0.53;;;-3.80;77.50;;;;;;5006986;28;20251;-71
2023/02/11 04:50:19;;;;;;;0.33;0.33;;;-3.80;77.40;;;;;;4994987;28;20177;-71
2023/02/11 04:52:45;;;;;;;0.20;0.20;;;-3.80;77.50;;;;;;5011667;28;20259;-70
2023/02/11 04:55:12;;;;;;;0.20;0.20;;;-3.80;77.40;;;;;;5008182;28;20188;-70
2023/02/11 04:57:38;;;;;;;0.30;0.30;;;-3.90;77.60;;;;;;5010908;28;20627;-71
2023/02/11 05:00:05;;;;;;;1.50;0.87;;;-3.90;77.90;;;;;;5016392;28;20253;-71
2023/02/11 05:02:30;;;;;;;0.30;0.30;;;-3.90;77.90;;;;;;5005115;28;20181;-72
2023/02/11 05:04:56;;;;;;;0.60;0.53;;;-4.00;77.70;;;;;;5014265;28;20736;-73
2023/02/11 05:07:22;;;;;;;0.23;0.23;;;-3.90;77.80;;;;;;5016942;28;20206;-75
2023/02/11 05:09:47;;;;;;;0.40;0.40;;;-4.00;77.80;;;;;;5004852;28;20188;-74
2023/02/11 05:12:13;;;;;;;1.33;0.53;;;-4.00;78.00;;;;;;5010721;28;20180;-71
2023/02/11 05:14:39;;;;;;;0.23;0.23;;;-4.00;77.90;;;;;;5005723;28;20264;-71
2023/02/11 05:17:05;;;;;;;1.87;0.83;;;-4.10;77.90;;;;;;5014846;28;20275;-70
2023/02/11 05:19:30;;;;;;;0.23;0.23;;;-4.10;78.00;;;;;;5006543;28;20191;-71
2023/02/11 05:21:56;;;;;;;0.47;0.47;;;-4.10;78.10;;;;;;5014815;28;20188;-71
2023/02/11 05:24:22;;;;;;;0.20;0.20;;;-4.20;78.20;;;;;;5006847;28;20668;-72
2023/02/11 05:26:48;;;;;;;0.10;0.10;;;-4.20;78.20;;;;;;5006928;28;20302;-71
2023/02/11 05:29:14;;;;;;;0.87;0.87;;;-4.20;78.50;;;;;;5007068;28;20222;-73
2023/02/11 05:31:39;;;;;;;0.77;0.77;;;-4.20;78.50;;;;;;5004973;28;20189;-71
2023/02/11 05:34:05;;;;;;;1.17;0.60;;;-4.30;78.60;;;;;;5008686;28;20279;-71
2023/02/11 05:36:31;;;;;;;0.87;0.87;;;-4.30;79.00;;;;;;5012463;28;20259;-71
2023/02/11 05:38:56;;;;;;;0.67;0.67;;;-4.30;79.00;;;;;;5007255;28;20615;-71
2023/02/11 05:41:24;;;;;;;0.70;0.43;;;-4.30;79.20;;;;;;5012971;28;20194;-72
2023/02/11 05:43:50;;;;;;;1.10;0.73;;;-4.40;79.20;;;;;;5016417;28;20188;-71
2023/02/11 05:46:16;;;;;;;0.93;0.83;;;-4.30;79.30;;;;;;5005400;28;20181;-71
2023/02/11 05:48:42;;;;;;;1.47;0.60;;;-4.40;79.50;;;;;;5005738;28;20216;-71
2023/02/11 05:51:08;;;;;;;1.20;1.10;;;-4.40;79.50;;;;;;5006178;28;20200;-71
2023/02/11 05:53:34;;;;;;;1.33;0.83;;;-4.40;79.50;;;;;;5011403;28;20192;-72
2023/02/11 05:56:00;;;;;;;0.20;0.20;;;-4.40;79.40;;;;;;5005012;28;20181;-71
2023/02/11 05:58:26;;;;;;;0.70;0.70;;;-4.40;79.60;;;;;;5006979;28;20191;-71
2023/02/11 06:00:54;;;;;;;0.30;0.30;;;-4.40;79.60;;;;;;5006279;28;20197;-71
2023/02/11 06:03:21;;;;;;;4.20;0.70;;;-4.40;79.70;;;;;;5001900;28;20199;-71
2023/02/11 06:05:46;;;;;;;2.63;0.50;;;-4.40;79.80;;;;;;5005577;28;20200;-71
2023/02/11 06:08:12;;;;;;;0.60;0.60;;;-4.40;79.90;;;;;;5005472;28;20219;-72
2023/02/11 06:10:41;;;;;;;0.53;0.53;;;-4.40;79.90;;;;;;5009858;28;20190;-72
2023/02/11 06:13:06;;;;;;;0.77;0.77;;;-4.40;79.90;;;;;;5015437;28;20183;-72
2023/02/11 06:15:32;;;;;;;0.50;0.30;;;-4.40;79.80;;;;;;5011968;28;20182;-72
2023/02/11 06:17:58;;;;;;;0.97;0.87;;;-4.30;80.40;;;;;;5007551;28;20192;-71
2023/02/11 06:20:24;;;;;;;0.67;0.60;;;-4.40;80.10;;;;;;5006460;28;20649;-71
2023/02/11 06:22:49;;;;;;;0.40;0.40;;;-4.40;80.30;;;;;;5006338;28;20191;-71
2023/02/11 06:25:15;;;;;;;0.20;0.20;;;-4.40;80.20;;;;;;5016769;28;20214;-72
2023/02/11 06:27:41;;;;;;;1.70;0.37;;;-4.40;80.20;;;;;;5007598;28;20254;-70
2023/02/11 06:30:08;;;;;;;0.70;0.70;;;-4.30;80.30;;;;;;5006490;28;20194;-72
2023/02/11 06:32:35;;;;;;;0.43;0.20;;;-4.30;80.30;;;;;;5003533;28;20257;-71
2023/02/11 06:35:01;;;;;;;0.57;0.57;;;-4.30;80.30;;;;;;5010100;28;20187;-72
2023/02/11 06:37:27;;;;;;;0.70;0.70;;;-4.20;80.30;;;;;;5006413;28;20258;-70
2023/02/11 06:39:53;;;;;;;0.20;0.20;;;-4.20;80.30;;;;;;5006415;28;20181;-72
2023/02/11 06:42:18;;;;;;;0.37;0.37;;;-4.20;80.30;;;;;;5008698;28;20263;-71
2023/02/11 06:44:44;;;;;;;1.93;1.83;;;-4.10;80.30;;;;;;5005013;28;20274;-72
2023/02/11 06:47:10;;;;;;;0.63;0.63;;;-4.10;80.30;;;;;;5019653;28;20185;-71
2023/02/11 06:49:35;;;;;;;0.80;0.80;;;-4.00;80.30;;;;;;5004966;28;20216;-71
2023/02/11 06:52:02;;;;;;;0.20;0.20;;;-3.90;80.20;;;;;;5008546;28;20212;-71
2023/02/11 06:54:27;;;;;;;0.60;0.60;;;-3.80;80.10;;;;;;5005488;28;20189;-71
2023/02/11 06:56:53;;;;;;;1.03;0.57;;;-3.70;79.90;;;;;;5004201;28;20202;-71
2023/02/11 06:59:19;;;;;;;0.73;0.73;;;-3.60;79.90;;;;;;5007312;28;20299;-70
2023/02/11 07:01:46;;;;;;;1.27;1.17;;;-3.50;79.70;;;;;;5004234;28;20298;-70
2023/02/11 07:04:13;;;;;;;0.30;0.30;;;-3.30;79.70;;;;;;5013085;28;20587;-70
2023/02/11 07:06:40;;;;;;;0.53;0.50;;;-3.20;79.20;;;;;;5004533;28;20180;-70
2023/02/11 07:09:06;;;;;;;3.57;1.17;;;-3.00;78.80;;;;;;5008216;28;20394;-71
2023/02/11 07:11:32;;;;;;;3.10;0.83;;;-2.60;78.70;;;;;;5005913;28;20188;-72
2023/02/11 07:14:04;;;;;;;0.70;0.70;;;-2.10;78.00;;;;;;5004243;28;20192;-72
2023/02/11 07:16:30;;;;;;;1.00;1.00;;;-1.50;76.90;;;;;;4997514;28;20188;-70
2023/02/11 07:18:56;;;;;;;1.47;1.37;;;-0.70;75.30;;;;;;5019178;28;20180;-71
2023/02/11 07:21:23;;;;;;;2.17;1.50;;;0.10;73.80;;;;;;5011129;28;20662;-70
2023/02/11 07:23:49;;;;;;;2.57;1.60;;;1.00;71.70;;;;;;5009958;28;20192;-69
2023/02/11 07:26:17;;;;;;;2.00;1.47;;;1.80;68.80;;;;;;5005079;28;20185;-70
2023/02/11 07:28:44;;;;;;;8.77;2.83;;;2.50;67.20;;;;;;5006201;28;21077;-71
2023/02/11 07:31:21;;;;;;;3.73;2.53;;;3.20;67.00;;;;;;5004554;28;20239;-71
2023/02/11 07:33:48;;;;;;;2.60;2.40;;;4.00;65.70;;;;;;5010238;28;20181;-72
2023/02/11 07:36:15;;;;;;;3.17;2.83;;;4.60;62.30;;;;;;5004875;28;20184;-72
2023/02/11 07:38:41;;;;;;;4.90;3.27;;;5.10;62.50;;;;;;5003305;28;20185;-71
2023/02/11 07:41:10;;;;;;;5.60;3.47;;;5.70;62.00;;;;;;5004223;28;20181;-72
2023/02/11 07:43:37;;;;;;;8.30;3.67;;;6.40;61.20;;;;;;5007191;28;20306;-72
2023/02/11 07:46:11;;;;;;;5.83;4.07;;;6.90;57.80;;;;;;5003449;28;20193;-72
2023/02/11 07:48:38;;;;;;;6.57;3.83;;;7.30;59.00;;;;;;5001077;28;20248;-72
2023/02/11 07:51:05;;;;;;;5.27;3.93;;;7.80;57.50;;;;;;5002144;28;20184;-72
2023/02/11 07:53:30;;;;;;;6.80;4.60;;;8.40;56.30;;;;;;5008861;28;20189;-71
2023/02/11 07:55:56;;;;;;;6.50;4.00;;;8.90;56.60;;;;;;5004180;28;20655;-71
2023/02/11 07:58:21;;;;;;;5.30;3.90;;;9.10;53.20;;;;;;5004365;28;20185;-72
2023/02/11 08:00:47;;;;;;;6.00;4.10;;;9.00;53.30;;;;;;5005125;28;20201;-71
2023/02/11 08:03:13;;;;;;;5.90;4.33;;;9.20;54.20;;;;;;5003559;28;20838;-72
2023/02/11 08:05:38;;;;;;;5.27;4.40;;;9.60;53.50;;;;;;5005389;28;20193;-72
2023/02/11 08:08:04;;;;;;;9.43;4.47;;;9.80;52.20;;;;;;5003103;28;20685;-73
2023/02/11 08:10:30;;;;;;;8.13;4.30;;;10.00;51.90;;;;;;5004391;28;20173;-73
2023/02/11 08:12:55;;;;;;;7.70;4.87;;;10.10;52.00;;;;;;4999330;28;20212;-74
2023/02/11 08:15:21;;;;;;;13.60;4.40;;;10.40;52.70;;;;;;4999222;28;20181;-73
2023/02/11 08:17:47;;;;;;;5.07;4.10;;;10.90;52.30;;;;;;5004522;28;20197;-74
2023/02/11 08:20:12;;;;;;;5.50;3.92;;;11.40;50.40;;;;;;5004496;28;20177;-72
2023/02/11 08:22:38;;;;;;;7.95;4.50;;;11.90;50.60;;;;;;5002481;28;20215;-72
2023/02/11 08:25:04;;;;;;;8.85;5.40;;;12.40;50.50;;;;;;5003482;28;20193;-73
2023/02/11 08:27:30;;;;;;;4.70;3.95;;;12.90;49.70;;;;;;5016428;28;20192;-72
2023/02/11 08:29:55;;;;;;;8.25;5.30;;;13.30;49.20;;;;;;5011183;28;20181;-72
2023/02/11 08:32:24;;;;;;;11.27;5.55;;;13.60;48.50;;;;;;5002219;28;20221;-73
2023/02/11 08:34:51;;;;;;;10.05;5.22;;;14.00;48.00;;;;;;5007839;28;20185;-72
2023/02/11 08:37:17;;;;;;;8.75;5.72;;;14.30;47.20;;;;;;5003343;28;20181;-72
2023/02/11 08:39:43;;;;;;;11.25;5.88;;;14.60;47.30;;;;;;5007393;28;20193;-73
2023/02/11 08:42:09;;;;;;;15.23;6.65;;;14.70;45.50;;;;;;5003921;28;20196;-72
2023/02/11 08:44:35;;;;;;;14.73;7.25;;;14.30;45.60;;;;;;5015104;28;20180;-72
2023/02/11 08:47:00;;;;;;;11.50;6.63;;;13.70;45.70;;;;;;5002095;28;20192;-72
2023/02/11 08:49:26;;;;;;;10.55;5.95;;;13.00;46.30;;;;;;5006834;28;20223;-72
2023/02/11 08:51:53;;;;;;;14.32;6.88;;;12.80;47.20;;;;;;5007899;28;20196;-71
2023/02/11 08:54:18;;;;;;;14.23;7.25;;;12.80;47.10;;;;;;5000145;28;20177;-74
2023/02/11 08:56:44;;;;;;;7.38;5.53;;;12.60;46.30;;;;;;5000509;28;20189;-73
2023/02/11 08:59:13;;;;;;;10.40;5.60;;;12.40;47.50;;;;;;5006234;28;20205;-72
2023/02/11 09:01:39;;;;;;;8.30;6.13;;;12.60;47.50;;;;;;5005073;28;20659;-72
2023/02/11 09:04:04;;;;;;;7.82;5.75;;;12.90;47.90;;;;;;5004741;28;20185;-73
2023/02/11 09:06:31;;;;;;;11.38;6.30;;;13.40;47.90;;;;;;5007052;28;20805;-74
2023/02/11 09:08:57;;;;;;;11.20;6.43;;;13.80;46.70;;;;;;5006275;28;20330;-72
2023/02/11 09:11:34;;;;;;;8.43;5.82;;;14.30;47.00;;;;;;5006387;28;20189;-73
2023/02/11 09:14:02;;;;;;;9.07;5.22;;;15.00;46.10;;;;;;5003547;28;20243;-71
2023/02/11 09:16:31;;;;;;;8.07;6.07;;;15.10;43.60;;;;;;5005721;28;20184;-71
2023/02/11 09:18:58;;;;;;;9.60;6.22;;;14.60;44.50;;;;;;5005520;28;20360;-73
2023/02/11 09:21:24;;;;;;;11.98;7.00;;;14.50;44.40;;;;;;5006010;28;21018;-73
2023/02/11 09:23:50;;;;;;;6.78;5.60;;;13.50;43.40;;;;;;5006688;28;21035;-73
2023/02/11 09:26:19;;;;;;;8.35;5.63;;;13.00;44.90;;;;;;5006115;28;20375;-73
2023/02/11 09:28:45;;;;;;;8.43;5.70;;;12.90;46.00;;;;;;5003168;28;20216;-73
2023/02/11 09:31:14;;;;;;;7.85;5.07;;;13.50;46.30;;;;;;5003893;28;20200;-71
2023/02/11 09:33:46;;;;;;;10.38;6.03;;;13.90;44.60;;;;;;5002757;28;20741;-73
2023/02/11 09:36:19;;;;;;;9.52;5.82;;;14.00;44.40;;;;;;5008058;28;20185;-74
2023/02/11 09:38:45;;;;;;;7.50;5.30;;;14.10;44.40;;;;;;5004896;28;20193;-72
2023/02/11 09:41:17;;;;;;;9.95;5.40;;;14.20;44.10;;;;;;5009667;28;20184;-76
2023/02/11 09:43:46;;;;;;;7.93;5.25;;;14.10;43.90;;;;;;5006493;28;20632;-73
2023/02/11 09:46:15;;;;;;;6.63;5.20;;;13.80;43.10;;;;;;5009945;28;20204;-71
2023/02/11 09:48:44;;;;;;;9.13;5.47;;;13.50;44.70;;;;;;5010831;28;20216;-73
2023/02/11 09:51:43;;;;;;;8.30;5.07;;;13.80;45.60;;;;;;5005612;28;20197;-71
2023/02/11 09:54:27;;;;;;;6.75;4.60;;;14.30;43.60;;;;;;4944935;28;20703;-70
2023/02/11 09:56:53;;;;;;;6.20;5.15;;;14.30;43.90;;;;;;4944197;28;20282;-70
2023/02/11 09:59:19;;;;;;;7.05;5.45;;;14.60;43.80;;;;;;4944892;29;20286;-71
2023/02/11 10:02:14;;;;;;;9.05;5.88;;;15.10;44.40;;;;;;4944744;28;20793;-69
2023/02/11 10:04:48;;;;;;;7.25;5.03;;;15.70;42.60;;;;;;4944949;28;21018;-68
2023/02/11 10:07:45;;;;;;;7.32;5.63;;;15.80;42.30;;;;;;4944416;28;20203;-70
2023/02/11 10:10:32;;;;;;;7.05;4.93;;;16.00;42.10;;;;;;4944394;28;20203;-70
2023/02/11 10:13:21;;;;;;;7.93;4.85;;;16.40;42.20;;;;;;4943212;28;20210;-70
2023/02/11 10:16:07;;;;;;;9.27;5.38;;;16.70;39.90;;;;;;4956433;28;20191;-70
2023/02/11 10:18:45;;;;;;;7.15;5.43;;;16.70;40.50;;;;;;4944399;28;20351;-70
2023/02/11 10:21:32;;;;;;;8.98;5.75;;;16.50;40.20;;;;;;4945114;28;20187;-70
2023/02/11 10:24:03;;;;;;;7.75;5.68;;;16.00;40.70;;;;;;4945510;28;20270;-71
2023/02/11 10:26:30;;;;;;;7.50;5.32;;;15.90;41.70;;;;;;4946357;28;20187;-70
2023/02/11 10:29:03;;;;;;;7.38;5.47;;;16.20;42.30;;;;;;4928514;29;20301;-70
2023/02/11 10:31:41;;;;;;;8.35;5.53;;;16.70;41.70;;;;;;4986184;28;20224;-70
2023/02/11 10:34:12;;;;;;;8.95;4.75;;;17.30;42.00;;;;;;5005720;28;20204;-70
2023/02/11 10:36:41;;;;;;;10.80;5.65;;;17.80;39.60;;;;;;5006544;28;20195;-70
2023/02/11 10:39:19;;;;;;;6.15;5.22;;;18.10;39.90;;;;;;5018826;28;20303;-69
2023/02/11 10:41:55;;;;;;;6.43;4.90;;;18.00;40.60;;;;;;5005866;28;20177;-70
2023/02/11 10:44:35;;;;;;;7.55;4.88;;;18.10;38.70;;;;;;5004762;28;20678;-69
2023/02/11 10:47:26;;;;;;;6.30;5.18;;;17.90;40.00;;;;;;4997635;28;20612;-70
2023/02/11 10:49:52;;;;;;;6.75;4.75;;;18.00;39.30;;;;;;4970871;28;20218;-69
2023/02/11 10:52:26;;;;;;;6.10;4.63;;;17.70;39.30;;;;;;4964168;28;20258;-70
2023/02/11 10:55:16;;;;;;;7.45;5.25;;;17.40;40.80;;;;;;4956875;28;20264;-69
2023/02/11 10:57:49;;;;;;;6.97;5.45;;;17.70;39.50;;;;;;4923463;29;20196;-70
2023/02/11 11:00:20;;;;;;;8.02;5.45;;;17.70;38.80;;;;;;4927957;29;20634;-69
2023/02/11 11:02:54;;;;;;;9.30;5.90;;;17.60;40.20;;;;;;4932962;29;20226;-70
2023/02/11 11:05:28;;;;;;;7.32;5.85;;;17.70;41.00;;;;;;4924421;29;20196;-70
2023/02/11 11:08:03;;;;;;;8.05;5.68;;;18.30;41.20;;;;;;4924151;29;20255;-70
2023/02/11 11:10:42;;;;;;;11.90;5.85;;;18.80;38.70;;;;;;4918738;29;20213;-70
2023/02/11 11:13:25;;;;;;;9.68;5.53;;;18.80;39.40;;;;;;4925516;29;20236;-69
2023/02/11 11:16:13;;;;;;;6.35;5.55;;;19.00;38.50;;;;;;4924980;29;20183;-70
2023/02/11 11:18:40;;;;;;;6.97;5.13;;;19.20;39.20;;;;;;4913651;29;20253;-70
2023/02/11 11:21:13;;;;;;;6.35;4.80;;;19.40;38.50;;;;;;4908411;29;20661;-70
2023/02/11 11:23:46;;;;;;;8.10;5.55;;;19.60;38.90;;;;;;4924102;29;20619;-70
2023/02/11 11:26:14;;;;;;;6.65;5.32;;;19.80;38.20;;;;;;4934930;28;20206;-70
2023/02/11 11:28:54;;;;;;;9.13;5.15;;;20.00;38.70;;;;;;4972820;28;20308;-70
2023/02/11 11:31:49;;;;;;;6.60;5.30;;;20.30;39.30;;;;;;4994090;28;20192;-70
2023/02/11 11:34:41;;;;;;;5.05;4.60;;;20.50;37.90;;;;;;4973582;28;20220;-71
2023/02/11 11:37:23;;;;;;;7.82;5.38;;;20.80;38.00;;;;;;4941998;28;20194;-71
2023/02/11 11:39:57;;;;;;;5.13;4.63;;;20.90;37.40;;;;;;4943602;29;20643;-70
2023/02/11 11:42:28;;;;;;;6.68;4.18;;;21.00;38.40;;;;;;4942437;28;20214;-70
2023/02/11 11:44:58;;;;;;;5.93;4.28;;;21.00;38.30;;;;;;4944184;28;20241;-71
2023/02/11 11:48:02;;;;;;;5.72;4.88;;;20.80;38.60;;;;;;4943558;28;20272;-71
2023/02/11 11:50:40;;;;;;;3.67;3.35;;;20.80;35.80;;;;;;4906282;29;20196;-71
2023/02/11 11:53:22;;;;;;;6.03;4.00;;;20.50;36.20;;;;;;4905947;29;20685;-72
2023/02/11 11:55:54;;;;;;;5.75;4.43;;;19.80;37.00;;;;;;4906099;29;20192;-71
2023/02/11 11:58:22;;;;;;;5.40;4.10;;;19.30;38.50;;;;;;4906443;29;20223;-71
2023/02/11 12:01:06;;;;;;;4.90;3.72;;;19.20;37.00;;;;;;4905392;29;20264;-71
2023/02/11 12:03:43;;;;;;;3.85;3.55;;;18.60;36.80;;;;;;4905808;29;20184;-71
2023/02/11 12:06:30;;;;;;;4.57;4.10;;;18.00;38.50;;;;;;4904568;29;20188;-71
2023/02/11 12:09:06;;;;;;;4.32;3.90;;;17.70;39.40;;;;;;4905121;29;20220;-71
2023/02/11 12:11:43;;;;;;;4.32;3.97;;;17.40;39.10;;;;;;4905257;29;20195;-71
2023/02/11 12:14:14;;;;;;;7.32;4.57;;;17.20;39.70;;;;;;4924100;29;20278;-70
2023/02/11 12:16:50;;;;;;;4.40;4.03;;;17.00;39.30;;;;;;4943112;29;20289;-70
2023/02/11 12:19:55;;;;;;;3.80;3.50;;;16.90;39.00;;;;;;4944692;28;20191;-70
2023/02/11 12:22:40;;;;;;;4.43;3.63;;;16.40;38.30;;;;;;4946524;28;20186;-69
2023/02/11 12:25:18;;;;;;;4.30;3.90;;;16.10;39.50;;;;;;4944240;28;20195;-70
2023/02/11 12:28:14;;;;;;;4.22;3.92;;;16.10;39.30;;;;;;4986728;28;20204;-69
2023/02/11 12:31:07;;;;;;;5.13;3.58;;;16.30;40.10;;;;;;4997924;28;20196;-70
2023/02/11 12:33:54;;;;;;;5.72;3.72;;;16.50;39.10;;;;;;5008047;28;20235;-70
2023/02/11 12:36:53;;;;;;;3.95;3.60;;;16.80;38.80;;;;;;5003918;28;20176;-70
2023/02/11 12:39:37;;;;;;;5.30;3.90;;;17.10;38.30;;;;;;4999069;28;20190;-70
2023/02/11 12:45:59;;;;;;;4.82;4.18;;;17.50;37.30;;;;;;4986040;28;20211;-70
2023/02/11 12:48:36;;;;;;;6.22;3.90;;;17.60;37.90;;;;;;4974778;28;20683;-69
2023/02/11 12:51:43;;;;;;;6.38;4.15;;;17.60;38.40;;;;;;4985123;28;20245;-68
2023/02/11 12:54:52;;;;;;;4.82;4.30;;;17.20;38.00;;;;;;4912027;29;20207;-70
2023/02/11 12:57:21;;;;;;;4.35;3.50;;;16.90;38.20;;;;;;4868953;29;23332;-70
2023/02/11 13:00:02;;;;;;;6.85;4.32;;;17.00;38.90;;;;;;4868910;29;20209;-70
2023/02/11 13:02:42;;;;;;;6.32;4.30;;;17.10;38.90;;;;;;4865722;29;20197;-69
2023/02/11 13:05:48;;;;;;;5.25;4.43;;;17.30;38.60;;;;;;4872800;29;20251;-69
2023/02/11 13:08:25;;;;;;;4.85;3.65;;;16.90;38.20;;;;;;4881343;29;20229;-70
2023/02/11 13:11:06;;;;;;;4.95;4.03;;;16.50;38.60;;;;;;4888840;29;20201;-71
2023/02/11 13:13:37;;;;;;;6.75;3.80;;;16.50;38.90;;;;;;4877155;29;20704;-70
2023/02/11 13:16:06;;;;;;;4.32;3.55;;;16.40;38.60;;;;;;4898817;29;20236;-71
2023/02/11 13:18:53;;;;;;;4.40;4.00;;;16.20;38.40;;;;;;4900893;29;20236;-70